sensor_id;sensor_type;location;lat;lon;timestamp;pressure;altitude;pressure_sealevel;temperature;humidity
63708;BME280;67643;-34.198;22.084;2023-08-21T00:01:05;99314.14;;;17.36;42.60
63708;BME280;67643;-34.198;22.084;2023-08-21T00:03:34;99307.85;;;17.42;42.84
63708;BME280;67643;-34.198;22.084;2023-08-21T00:06:03;99293.83;;;17.37;42.92
63708;BME280;67643;-34.198;22.084;2023-08-21T00:08:31;99283.34;;;17.37;43.18
63708;BME280;67643;-34.198;22.084;2023-08-21T00:11:00;99281.47;;;17.14;43.03
63708;BME280;67643;-34.198;22.084;2023-08-21T00:13:29;99275.47;;;16.89;43.26
63708;BME280;67643;-34.198;22.084;2023-08-21T00:15:57;99269.04;;;17.22;43.07
63708;BME280;67643;-34.198;22.084;2023-08-21T00:18:25;99256.92;;;17.00;42.92
63708;BME280;67643;-34.198;22.084;2023-08-21T00:20:54;99246.85;;;17.14;42.78
63708;BME280;67643;-34.198;22.084;2023-08-21T00:23:22;99234.64;;;17.08;42.19
63708;BME280;67643;-34.198;22.084;2023-08-21T00:25:51;99230.30;;;16.88;42.41
63708;BME280;67643;-34.198;22.084;2023-08-21T00:28:19;99227.30;;;16.86;42.41
63708;BME280;67643;-34.198;22.084;2023-08-21T00:30:48;99219.88;;;16.80;42.35
63708;BME280;67643;-34.198;22.084;2023-08-21T00:33:16;99210.50;;;16.75;42.23
63708;BME280;67643;-34.198;22.084;2023-08-21T00:35:45;99198.59;;;16.83;42.06
63708;BME280;67643;-34.198;22.084;2023-08-21T00:38:14;99188.40;;;16.74;41.85
63708;BME280;67643;-34.198;22.084;2023-08-21T00:40:42;99177.45;;;16.70;41.75
63708;BME280;67643;-34.198;22.084;2023-08-21T00:43:11;99175.16;;;16.41;41.84
63708;BME280;67643;-34.198;22.084;2023-08-21T00:45:43;99168.19;;;16.51;41.71
63708;BME280;67643;-34.198;22.084;2023-08-21T00:48:12;99163.18;;;16.08;41.60
63708;BME280;67643;-34.198;22.084;2023-08-21T00:50:41;99148.99;;;16.53;40.95
63708;BME280;67643;-34.198;22.084;2023-08-21T00:53:10;99147.35;;;16.19;40.99
63708;BME280;67643;-34.198;22.084;2023-08-21T00:55:38;99139.02;;;16.27;40.96
63708;BME280;67643;-34.198;22.084;2023-08-21T00:58:08;99131.30;;;16.10;40.52
63708;BME280;67643;-34.198;22.084;2023-08-21T01:00:37;99102.44;;;16.16;40.63
63708;BME280;67643;-34.198;22.084;2023-08-21T01:03:06;99074.17;;;16.28;40.14
63708;BME280;67643;-34.198;22.084;2023-08-21T01:05:35;99059.26;;;16.17;40.01
63708;BME280;67643;-34.198;22.084;2023-08-21T01:08:06;99048.50;;;15.93;40.15
63708;BME280;67643;-34.198;22.084;2023-08-21T01:10:46;99038.66;;;16.08;39.80
63708;BME280;67643;-34.198;22.084;2023-08-21T01:13:34;99037.25;;;16.10;38.93
63708;BME280;67643;-34.198;22.084;2023-08-21T01:16:06;99041.66;;;16.24;38.45
63708;BME280;67643;-34.198;22.084;2023-08-21T01:18:36;99038.45;;;16.59;38.08
63708;BME280;67643;-34.198;22.084;2023-08-21T01:21:05;99038.87;;;16.22;36.79
63708;BME280;67643;-34.198;22.084;2023-08-21T01:23:34;99032.80;;;15.97;35.48
63708;BME280;67643;-34.198;22.084;2023-08-21T01:26:04;99024.54;;;15.96;37.89
63708;BME280;67643;-34.198;22.084;2023-08-21T01:28:33;99029.29;;;16.11;37.09
63708;BME280;67643;-34.198;22.084;2023-08-21T01:31:07;99036.13;;;16.07;34.28
63708;BME280;67643;-34.198;22.084;2023-08-21T01:33:42;99048.54;;;16.33;34.06
63708;BME280;67643;-34.198;22.084;2023-08-21T01:36:12;99052.93;;;16.29;34.62
63708;BME280;67643;-34.198;22.084;2023-08-21T01:38:41;99051.88;;;16.49;35.23
63708;BME280;67643;-34.198;22.084;2023-08-21T01:41:09;99063.48;;;16.24;36.32
63708;BME280;67643;-34.198;22.084;2023-08-21T01:43:38;99064.31;;;16.61;33.92
63708;BME280;67643;-34.198;22.084;2023-08-21T01:46:07;99059.26;;;16.64;33.96
63708;BME280;67643;-34.198;22.084;2023-08-21T01:48:35;99059.64;;;16.20;31.99
63708;BME280;67643;-34.198;22.084;2023-08-21T01:51:04;99057.23;;;16.52;32.02
63708;BME280;67643;-34.198;22.084;2023-08-21T01:53:32;99046.35;;;16.30;31.38
63708;BME280;67643;-34.198;22.084;2023-08-21T01:56:01;99051.98;;;16.67;31.15
63708;BME280;67643;-34.198;22.084;2023-08-21T01:58:29;99056.84;;;16.61;31.50
63708;BME280;67643;-34.198;22.084;2023-08-21T02:02:30;99057.49;;;16.95;31.70
63708;BME280;67643;-34.198;22.084;2023-08-21T02:04:58;99059.41;;;16.69;31.00
63708;BME280;67643;-34.198;22.084;2023-08-21T02:07:26;99067.23;;;16.46;32.04
63708;BME280;67643;-34.198;22.084;2023-08-21T02:09:55;99063.68;;;16.52;32.91
63708;BME280;67643;-34.198;22.084;2023-08-21T02:12:24;99068.63;;;16.86;29.72
63708;BME280;67643;-34.198;22.084;2023-08-21T02:14:52;99068.34;;;16.62;29.08
63708;BME280;67643;-34.198;22.084;2023-08-21T02:17:21;99065.23;;;16.84;32.11
63708;BME280;67643;-34.198;22.084;2023-08-21T02:19:49;99062.41;;;16.90;30.74
63708;BME280;67643;-34.198;22.084;2023-08-21T02:22:18;99057.21;;;16.84;30.33
63708;BME280;67643;-34.198;22.084;2023-08-21T02:24:46;99055.45;;;17.25;30.21
63708;BME280;67643;-34.198;22.084;2023-08-21T02:27:15;99053.52;;;17.01;29.75
63708;BME280;67643;-34.198;22.084;2023-08-21T02:29:44;99053.32;;;16.63;31.28
63708;BME280;67643;-34.198;22.084;2023-08-21T02:32:12;99056.19;;;16.88;29.22
63708;BME280;67643;-34.198;22.084;2023-08-21T02:34:41;99056.78;;;16.83;30.58
63708;BME280;67643;-34.198;22.084;2023-08-21T02:37:09;99063.23;;;16.79;31.41
63708;BME280;67643;-34.198;22.084;2023-08-21T02:39:38;99061.06;;;16.55;31.58
63708;BME280;67643;-34.198;22.084;2023-08-21T02:42:07;99066.02;;;16.76;29.78
63708;BME280;67643;-34.198;22.084;2023-08-21T02:44:35;99065.76;;;16.59;30.38
63708;BME280;67643;-34.198;22.084;2023-08-21T02:47:04;99076.17;;;16.73;30.63
63708;BME280;67643;-34.198;22.084;2023-08-21T02:49:32;99081.36;;;16.69;29.66
63708;BME280;67643;-34.198;22.084;2023-08-21T02:52:01;99090.11;;;16.51;30.78
63708;BME280;67643;-34.198;22.084;2023-08-21T02:54:29;99095.39;;;16.60;30.39
63708;BME280;67643;-34.198;22.084;2023-08-21T02:56:58;99102.96;;;16.91;29.62
63708;BME280;67643;-34.198;22.084;2023-08-21T02:59:26;99104.22;;;16.50;32.68
63708;BME280;67643;-34.198;22.084;2023-08-21T03:01:55;99108.86;;;16.69;30.20
63708;BME280;67643;-34.198;22.084;2023-08-21T03:04:24;99116.34;;;16.80;31.17
63708;BME280;67643;-34.198;22.084;2023-08-21T03:06:52;99128.56;;;16.93;29.22
63708;BME280;67643;-34.198;22.084;2023-08-21T03:09:21;99143.28;;;16.88;29.78
63708;BME280;67643;-34.198;22.084;2023-08-21T03:11:49;99147.66;;;16.86;30.18
63708;BME280;67643;-34.198;22.084;2023-08-21T03:14:18;99156.53;;;17.06;30.97
63708;BME280;67643;-34.198;22.084;2023-08-21T03:16:47;99163.84;;;16.97;30.12
63708;BME280;67643;-34.198;22.084;2023-08-21T03:19:16;99166.34;;;17.05;31.04
63708;BME280;67643;-34.198;22.084;2023-08-21T03:21:44;99168.84;;;17.03;30.00
63708;BME280;67643;-34.198;22.084;2023-08-21T03:24:12;99168.82;;;17.05;29.94
63708;BME280;67643;-34.198;22.084;2023-08-21T03:26:41;99178.90;;;17.22;31.01
63708;BME280;67643;-34.198;22.084;2023-08-21T03:29:10;99183.88;;;16.86;31.29
63708;BME280;67643;-34.198;22.084;2023-08-21T03:31:38;99191.10;;;17.01;30.86
63708;BME280;67643;-34.198;22.084;2023-08-21T03:34:07;99204.10;;;17.07;31.19
63708;BME280;67643;-34.198;22.084;2023-08-21T03:36:35;99213.37;;;17.22;32.00
63708;BME280;67643;-34.198;22.084;2023-08-21T03:39:04;99224.64;;;16.96;32.26
63708;BME280;67643;-34.198;22.084;2023-08-21T03:41:32;99212.55;;;16.69;33.08
63708;BME280;67643;-34.198;22.084;2023-08-21T03:44:01;99217.62;;;17.06;35.12
63708;BME280;67643;-34.198;22.084;2023-08-21T03:46:30;99239.35;;;16.76;35.73
63708;BME280;67643;-34.198;22.084;2023-08-21T03:48:58;99248.16;;;16.89;35.80
63708;BME280;67643;-34.198;22.084;2023-08-21T03:51:27;99262.36;;;16.58;36.01
63708;BME280;67643;-34.198;22.084;2023-08-21T03:53:55;99270.31;;;16.79;36.12
63708;BME280;67643;-34.198;22.084;2023-08-21T03:56:24;99273.95;;;16.63;36.34
63708;BME280;67643;-34.198;22.084;2023-08-21T03:58:52;99288.20;;;16.56;36.15
63708;BME280;67643;-34.198;22.084;2023-08-21T04:01:21;99273.99;;;16.89;36.03
63708;BME280;67643;-34.198;22.084;2023-08-21T04:03:50;99300.23;;;16.97;35.92
63708;BME280;67643;-34.198;22.084;2023-08-21T04:06:18;99299.43;;;16.84;36.10
63708;BME280;67643;-34.198;22.084;2023-08-21T04:08:47;99296.69;;;16.77;36.23
63708;BME280;67643;-34.198;22.084;2023-08-21T04:11:15;99288.64;;;17.11;35.86
63708;BME280;67643;-34.198;22.084;2023-08-21T04:13:44;99295.36;;;17.01;36.00
63708;BME280;67643;-34.198;22.084;2023-08-21T04:16:12;99294.28;;;17.02;35.78
63708;BME280;67643;-34.198;22.084;2023-08-21T04:18:41;99300.24;;;17.24;35.81
63708;BME280;67643;-34.198;22.084;2023-08-21T04:21:10;99297.36;;;17.26;35.84
63708;BME280;67643;-34.198;22.084;2023-08-21T04:23:38;99307.83;;;17.17;36.01
63708;BME280;67643;-34.198;22.084;2023-08-21T04:26:07;99313.54;;;17.02;36.01
63708;BME280;67643;-34.198;22.084;2023-08-21T04:28:36;99310.96;;;17.15;35.93
63708;BME280;67643;-34.198;22.084;2023-08-21T04:31:05;99325.82;;;17.21;36.19
63708;BME280;67643;-34.198;22.084;2023-08-21T04:33:34;99328.66;;;17.24;36.22
63708;BME280;67643;-34.198;22.084;2023-08-21T04:36:02;99332.41;;;17.15;36.43
63708;BME280;67643;-34.198;22.084;2023-08-21T04:38:31;99327.34;;;17.16;36.46
63708;BME280;67643;-34.198;22.084;2023-08-21T04:41:07;99334.83;;;17.26;36.41
63708;BME280;67643;-34.198;22.084;2023-08-21T04:43:35;99324.33;;;17.16;36.60
63708;BME280;67643;-34.198;22.084;2023-08-21T04:46:05;99334.28;;;17.33;36.47
63708;BME280;67643;-34.198;22.084;2023-08-21T04:48:32;99339.71;;;17.22;36.71
63708;BME280;67643;-34.198;22.084;2023-08-21T04:51:01;99346.09;;;17.27;36.68
63708;BME280;67643;-34.198;22.084;2023-08-21T04:53:30;99339.93;;;17.18;36.84
63708;BME280;67643;-34.198;22.084;2023-08-21T04:55:59;99338.34;;;17.21;36.87
63708;BME280;67643;-34.198;22.084;2023-08-21T04:58:28;99343.82;;;17.14;37.03
63708;BME280;67643;-34.198;22.084;2023-08-21T05:00:56;99351.11;;;17.45;36.97
63708;BME280;67643;-34.198;22.084;2023-08-21T05:03:26;99355.80;;;17.06;36.95
63708;BME280;67643;-34.198;22.084;2023-08-21T05:05:55;99370.30;;;17.14;37.21
63708;BME280;67643;-34.198;22.084;2023-08-21T05:08:24;99383.22;;;17.08;37.32
63708;BME280;67643;-34.198;22.084;2023-08-21T05:10:56;99375.05;;;17.17;37.25
63708;BME280;67643;-34.198;22.084;2023-08-21T05:13:25;99373.51;;;17.15;37.40
63708;BME280;67643;-34.198;22.084;2023-08-21T05:15:54;99380.05;;;17.37;37.15
63708;BME280;67643;-34.198;22.084;2023-08-21T05:18:23;99388.36;;;17.11;37.47
63708;BME280;67643;-34.198;22.084;2023-08-21T05:20:55;99398.33;;;17.04;37.60
63708;BME280;67643;-34.198;22.084;2023-08-21T05:23:24;99404.38;;;17.12;37.58
63708;BME280;67643;-34.198;22.084;2023-08-21T05:25:52;99402.56;;;17.18;37.56
63708;BME280;67643;-34.198;22.084;2023-08-21T05:28:21;99406.28;;;17.24;37.50
63708;BME280;67643;-34.198;22.084;2023-08-21T05:30:49;99418.71;;;17.18;37.63
63708;BME280;67643;-34.198;22.084;2023-08-21T05:33:19;99436.70;;;17.24;37.59
63708;BME280;67643;-34.198;22.084;2023-08-21T05:35:47;99448.29;;;17.17;37.88
63708;BME280;67643;-34.198;22.084;2023-08-21T05:38:16;99441.35;;;17.27;37.92
63708;BME280;67643;-34.198;22.084;2023-08-21T05:40:44;99452.03;;;16.94;38.00
63708;BME280;67643;-34.198;22.084;2023-08-21T05:43:13;99454.15;;;17.16;38.08
63708;BME280;67643;-34.198;22.084;2023-08-21T05:45:42;99462.39;;;17.00;38.07
63708;BME280;67643;-34.198;22.084;2023-08-21T05:48:10;99470.59;;;17.03;38.13
63708;BME280;67643;-34.198;22.084;2023-08-21T05:50:40;99470.71;;;17.15;38.29
63708;BME280;67643;-34.198;22.084;2023-08-21T05:53:08;99480.13;;;17.21;38.33
63708;BME280;67643;-34.198;22.084;2023-08-21T05:55:38;99496.23;;;17.17;38.46
63708;BME280;67643;-34.198;22.084;2023-08-21T05:58:06;99510.09;;;17.21;38.45
63708;BME280;67643;-34.198;22.084;2023-08-21T06:00:35;99510.08;;;17.15;38.56
63708;BME280;67643;-34.198;22.084;2023-08-21T06:03:04;99518.01;;;17.06;38.82
63708;BME280;67643;-34.198;22.084;2023-08-21T06:05:33;99517.67;;;17.12;38.74
63708;BME280;67643;-34.198;22.084;2023-08-21T06:08:01;99525.33;;;17.06;38.86
63708;BME280;67643;-34.198;22.084;2023-08-21T06:10:31;99534.44;;;17.25;38.67
63708;BME280;67643;-34.198;22.084;2023-08-21T06:12:59;99540.65;;;17.13;38.88
63708;BME280;67643;-34.198;22.084;2023-08-21T06:15:28;99542.49;;;17.18;38.90
63708;BME280;67643;-34.198;22.084;2023-08-21T06:17:57;99549.61;;;17.16;39.02
63708;BME280;67643;-34.198;22.084;2023-08-21T06:20:25;99549.21;;;17.15;39.10
63708;BME280;67643;-34.198;22.084;2023-08-21T06:22:53;99543.84;;;17.10;39.35
63708;BME280;67643;-34.198;22.084;2023-08-21T06:25:23;99546.29;;;17.26;39.24
63708;BME280;67643;-34.198;22.084;2023-08-21T06:27:51;99540.45;;;17.11;39.46
63708;BME280;67643;-34.198;22.084;2023-08-21T06:30:19;99530.20;;;17.10;39.29
63708;BME280;67643;-34.198;22.084;2023-08-21T06:32:48;99535.77;;;17.19;39.60
63708;BME280;67643;-34.198;22.084;2023-08-21T06:35:17;99544.72;;;17.27;39.67
63708;BME280;67643;-34.198;22.084;2023-08-21T06:37:45;99551.76;;;17.11;39.88
63708;BME280;67643;-34.198;22.084;2023-08-21T06:40:14;99554.16;;;17.23;39.87
63708;BME280;67643;-34.198;22.084;2023-08-21T06:42:42;99554.57;;;17.25;40.06
63708;BME280;67643;-34.198;22.084;2023-08-21T06:45:11;99558.33;;;17.41;40.40
63708;BME280;67643;-34.198;22.084;2023-08-21T06:47:39;99557.15;;;17.29;40.03
63708;BME280;67643;-34.198;22.084;2023-08-21T06:50:09;99561.46;;;17.12;40.42
63708;BME280;67643;-34.198;22.084;2023-08-21T06:52:37;99560.44;;;17.18;40.42
63708;BME280;67643;-34.198;22.084;2023-08-21T06:55:07;99565.88;;;16.96;40.40
63708;BME280;67643;-34.198;22.084;2023-08-21T06:57:35;99570.80;;;17.17;40.47
63708;BME280;67643;-34.198;22.084;2023-08-21T07:00:06;99569.45;;;16.81;40.83
63708;BME280;67643;-34.198;22.084;2023-08-21T07:02:34;99575.82;;;17.03;40.66
63708;BME280;67643;-34.198;22.084;2023-08-21T07:05:03;99581.79;;;17.20;41.01
63708;BME280;67643;-34.198;22.084;2023-08-21T07:07:31;99588.64;;;17.12;40.74
63708;BME280;67643;-34.198;22.084;2023-08-21T07:10:01;99594.07;;;17.28;41.27
63708;BME280;67643;-34.198;22.084;2023-08-21T07:12:30;99601.26;;;17.31;41.37
63708;BME280;67643;-34.198;22.084;2023-08-21T07:14:58;99601.66;;;17.19;41.63
63708;BME280;67643;-34.198;22.084;2023-08-21T07:17:27;99607.59;;;17.27;41.65
63708;BME280;67643;-34.198;22.084;2023-08-21T07:19:55;99609.31;;;16.73;42.00
63708;BME280;67643;-34.198;22.084;2023-08-21T07:22:24;99611.61;;;17.26;42.11
63708;BME280;67643;-34.198;22.084;2023-08-21T07:24:53;99615.54;;;17.31;42.15
63708;BME280;67643;-34.198;22.084;2023-08-21T07:27:22;99623.17;;;17.33;42.18
63708;BME280;67643;-34.198;22.084;2023-08-21T07:29:50;99621.62;;;17.25;42.39
63708;BME280;67643;-34.198;22.084;2023-08-21T07:32:18;99622.29;;;17.29;42.65
63708;BME280;67643;-34.198;22.084;2023-08-21T07:34:47;99625.54;;;17.32;42.63
63708;BME280;67643;-34.198;22.084;2023-08-21T07:37:15;99625.82;;;17.27;42.73
63708;BME280;67643;-34.198;22.084;2023-08-21T07:39:44;99627.90;;;17.32;42.89
63708;BME280;67643;-34.198;22.084;2023-08-21T07:42:13;99621.96;;;17.09;43.03
63708;BME280;67643;-34.198;22.084;2023-08-21T07:44:41;99628.72;;;17.52;42.78
63708;BME280;67643;-34.198;22.084;2023-08-21T07:47:10;99633.95;;;17.34;43.06
63708;BME280;67643;-34.198;22.084;2023-08-21T07:49:38;99637.86;;;17.33;43.14
63708;BME280;67643;-34.198;22.084;2023-08-21T07:52:07;99636.84;;;17.35;43.08
63708;BME280;67643;-34.198;22.084;2023-08-21T07:54:35;99634.70;;;17.48;43.06
63708;BME280;67643;-34.198;22.084;2023-08-21T07:57:04;99644.40;;;17.48;43.14
63708;BME280;67643;-34.198;22.084;2023-08-21T07:59:32;99647.00;;;17.46;43.15
63708;BME280;67643;-34.198;22.084;2023-08-21T08:02:01;99649.19;;;17.51;42.91
63708;BME280;67643;-34.198;22.084;2023-08-21T08:04:30;99644.63;;;17.32;43.44
63708;BME280;67643;-34.198;22.084;2023-08-21T08:06:58;99641.76;;;17.35;43.11
63708;BME280;67643;-34.198;22.084;2023-08-21T08:09:26;99638.12;;;17.44;43.19
63708;BME280;67643;-34.198;22.084;2023-08-21T08:11:55;99635.48;;;17.27;43.92
63708;BME280;67643;-34.198;22.084;2023-08-21T08:14:23;99640.73;;;17.31;43.29
63708;BME280;67643;-34.198;22.084;2023-08-21T08:16:52;99640.56;;;17.29;43.48
63708;BME280;67643;-34.198;22.084;2023-08-21T08:19:21;99639.07;;;17.36;43.41
63708;BME280;67643;-34.198;22.084;2023-08-21T08:21:49;99644.07;;;17.92;43.18
63708;BME280;67643;-34.198;22.084;2023-08-21T08:24:18;99643.08;;;17.34;43.51
63708;BME280;67643;-34.198;22.084;2023-08-21T08:26:46;99642.34;;;17.11;43.44
63708;BME280;67643;-34.198;22.084;2023-08-21T08:30:15;99650.89;;;17.46;43.72
63708;BME280;67643;-34.198;22.084;2023-08-21T08:32:44;99652.92;;;17.19;43.97
63708;BME280;67643;-34.198;22.084;2023-08-21T08:35:13;99650.82;;;17.29;43.94
63708;BME280;67643;-34.198;22.084;2023-08-21T08:37:42;99650.50;;;17.43;43.87
63708;BME280;67643;-34.198;22.084;2023-08-21T08:40:11;99646.13;;;17.57;43.98
63708;BME280;67643;-34.198;22.084;2023-08-21T08:42:40;99648.82;;;17.50;43.76
63708;BME280;67643;-34.198;22.084;2023-08-21T08:45:09;99647.60;;;17.46;43.92
63708;BME280;67643;-34.198;22.084;2023-08-21T08:47:41;99647.90;;;17.29;43.81
63708;BME280;67643;-34.198;22.084;2023-08-21T08:50:09;99648.12;;;17.41;43.65
63708;BME280;67643;-34.198;22.084;2023-08-21T08:52:38;99656.52;;;17.33;43.49
63708;BME280;67643;-34.198;22.084;2023-08-21T08:55:08;99648.08;;;17.61;43.28
63708;BME280;67643;-34.198;22.084;2023-08-21T08:57:36;99648.20;;;17.71;43.26
63708;BME280;67643;-34.198;22.084;2023-08-21T09:00:06;99648.53;;;17.39;43.64
63708;BME280;67643;-34.198;22.084;2023-08-21T09:02:34;99646.21;;;17.62;43.80
63708;BME280;67643;-34.198;22.084;2023-08-21T09:05:03;99657.89;;;17.64;43.65
63708;BME280;67643;-34.198;22.084;2023-08-21T09:07:32;99651.41;;;17.65;43.58
63708;BME280;67643;-34.198;22.084;2023-08-21T09:10:01;99653.06;;;17.76;43.22
63708;BME280;67643;-34.198;22.084;2023-08-21T09:12:32;99655.15;;;17.80;43.22
63708;BME280;67643;-34.198;22.084;2023-08-21T09:15:00;99647.87;;;17.73;43.68
63708;BME280;67643;-34.198;22.084;2023-08-21T09:17:34;99645.92;;;17.53;43.94
63708;BME280;67643;-34.198;22.084;2023-08-21T09:20:07;99650.43;;;17.62;43.70
63708;BME280;67643;-34.198;22.084;2023-08-21T09:22:36;99651.71;;;17.95;43.92
63708;BME280;67643;-34.198;22.084;2023-08-21T09:25:06;99653.87;;;17.78;44.22
63708;BME280;67643;-34.198;22.084;2023-08-21T09:27:35;99652.32;;;17.72;44.41
63708;BME280;67643;-34.198;22.084;2023-08-21T09:30:05;99659.35;;;17.87;44.02
63708;BME280;67643;-34.198;22.084;2023-08-21T09:32:53;99654.52;;;17.83;44.39
63708;BME280;67643;-34.198;22.084;2023-08-21T09:35:21;99653.01;;;18.00;44.08
63708;BME280;67643;-34.198;22.084;2023-08-21T09:37:50;99649.04;;;17.89;44.57
63708;BME280;67643;-34.198;22.084;2023-08-21T09:40:18;99651.99;;;17.94;44.11
63708;BME280;67643;-34.198;22.084;2023-08-21T09:42:52;99645.13;;;18.04;44.35
63708;BME280;67643;-34.198;22.084;2023-08-21T09:45:21;99639.76;;;18.10;44.15
63708;BME280;67643;-34.198;22.084;2023-08-21T09:47:50;99645.71;;;17.63;44.21
63708;BME280;67643;-34.198;22.084;2023-08-21T09:50:19;99632.95;;;18.15;44.31
63708;BME280;67643;-34.198;22.084;2023-08-21T09:52:47;99634.05;;;17.94;44.15
63708;BME280;67643;-34.198;22.084;2023-08-21T09:55:16;99634.11;;;18.19;44.29
63708;BME280;67643;-34.198;22.084;2023-08-21T09:57:46;99634.72;;;17.75;43.80
63708;BME280;67643;-34.198;22.084;2023-08-21T10:00:16;99632.51;;;18.37;43.78
63708;BME280;67643;-34.198;22.084;2023-08-21T10:02:49;99631.60;;;18.04;43.68
63708;BME280;67643;-34.198;22.084;2023-08-21T10:05:18;99622.82;;;18.35;43.71
63708;BME280;67643;-34.198;22.084;2023-08-21T10:07:48;99620.52;;;18.57;43.45
63708;BME280;67643;-34.198;22.084;2023-08-21T10:10:17;99625.43;;;18.12;43.62
63708;BME280;67643;-34.198;22.084;2023-08-21T10:12:46;99631.83;;;18.60;43.77
63708;BME280;67643;-34.198;22.084;2023-08-21T10:15:16;99627.52;;;18.27;43.63
63708;BME280;67643;-34.198;22.084;2023-08-21T10:17:44;99623.29;;;18.36;43.67
63708;BME280;67643;-34.198;22.084;2023-08-21T10:20:12;99624.04;;;18.40;43.55
63708;BME280;67643;-34.198;22.084;2023-08-21T10:22:44;99610.16;;;18.21;43.81
63708;BME280;67643;-34.198;22.084;2023-08-21T10:25:17;99608.70;;;18.20;43.73
63708;BME280;67643;-34.198;22.084;2023-08-21T10:27:48;99602.95;;;18.49;43.62
63708;BME280;67643;-34.198;22.084;2023-08-21T10:30:21;99599.50;;;18.70;43.56
63708;BME280;67643;-34.198;22.084;2023-08-21T10:32:51;99600.32;;;18.71;44.02
63708;BME280;67643;-34.198;22.084;2023-08-21T10:35:21;99592.03;;;18.41;43.64
63708;BME280;67643;-34.198;22.084;2023-08-21T10:38:22;99588.38;;;18.38;43.72
63708;BME280;67643;-34.198;22.084;2023-08-21T10:41:06;99587.52;;;18.36;43.78
63708;BME280;67643;-34.198;22.084;2023-08-21T10:43:43;99583.57;;;18.74;43.73
63708;BME280;67643;-34.198;22.084;2023-08-21T10:46:12;99589.29;;;18.73;43.56
63708;BME280;67643;-34.198;22.084;2023-08-21T10:48:41;99590.64;;;18.71;43.55
63708;BME280;67643;-34.198;22.084;2023-08-21T10:51:09;99589.12;;;18.46;43.39
63708;BME280;67643;-34.198;22.084;2023-08-21T10:53:38;99594.25;;;18.72;43.27
63708;BME280;67643;-34.198;22.084;2023-08-21T10:56:06;99589.14;;;18.42;43.21
63708;BME280;67643;-34.198;22.084;2023-08-21T10:58:38;99585.62;;;18.49;43.02
63708;BME280;67643;-34.198;22.084;2023-08-21T11:01:07;99575.46;;;18.81;42.78
63708;BME280;67643;-34.198;22.084;2023-08-21T11:03:38;99579.13;;;18.78;42.53
63708;BME280;67643;-34.198;22.084;2023-08-21T11:06:08;99572.34;;;18.52;42.33
63708;BME280;67643;-34.198;22.084;2023-08-21T11:08:37;99565.97;;;18.84;42.26
63708;BME280;67643;-34.198;22.084;2023-08-21T11:11:06;99575.98;;;18.71;42.03
63708;BME280;67643;-34.198;22.084;2023-08-21T11:13:35;99570.48;;;18.91;42.04
63708;BME280;67643;-34.198;22.084;2023-08-21T11:16:04;99575.00;;;18.59;42.12
63708;BME280;67643;-34.198;22.084;2023-08-21T11:18:35;99573.77;;;18.67;41.91
63708;BME280;67643;-34.198;22.084;2023-08-21T11:21:05;99577.22;;;18.73;41.79
63708;BME280;67643;-34.198;22.084;2023-08-21T11:23:34;99564.86;;;18.77;41.73
63708;BME280;67643;-34.198;22.084;2023-08-21T11:26:03;99563.11;;;18.77;41.71
63708;BME280;67643;-34.198;22.084;2023-08-21T11:28:32;99562.37;;;19.09;41.65
63708;BME280;67643;-34.198;22.084;2023-08-21T11:31:00;99561.29;;;18.38;41.64
63708;BME280;67643;-34.198;22.084;2023-08-21T11:33:31;99550.13;;;18.52;41.38
63708;BME280;67643;-34.198;22.084;2023-08-21T11:36:00;99554.82;;;18.99;41.29
63708;BME280;67643;-34.198;22.084;2023-08-21T11:38:29;99553.55;;;19.01;41.27
63708;BME280;67643;-34.198;22.084;2023-08-21T11:40:59;99550.58;;;19.06;41.18
63708;BME280;67643;-34.198;22.084;2023-08-21T11:43:38;99551.08;;;19.11;41.09
63708;BME280;67643;-34.198;22.084;2023-08-21T11:46:08;99561.10;;;19.10;41.05
63708;BME280;67643;-34.198;22.084;2023-08-21T11:48:38;99554.13;;;19.13;40.92
63708;BME280;67643;-34.198;22.084;2023-08-21T11:51:08;99553.39;;;19.01;40.69
63708;BME280;67643;-34.198;22.084;2023-08-21T11:53:38;99553.55;;;18.71;40.68
63708;BME280;67643;-34.198;22.084;2023-08-21T11:56:11;99557.51;;;18.85;40.70
63708;BME280;67643;-34.198;22.084;2023-08-21T11:58:40;99555.29;;;18.83;40.55
63708;BME280;67643;-34.198;22.084;2023-08-21T12:01:10;99556.07;;;19.07;40.45
63708;BME280;67643;-34.198;22.084;2023-08-21T12:03:39;99561.76;;;18.71;40.35
63708;BME280;67643;-34.198;22.084;2023-08-21T12:06:08;99570.14;;;19.01;40.31
63708;BME280;67643;-34.198;22.084;2023-08-21T12:08:37;99570.01;;;19.03;40.26
63708;BME280;67643;-34.198;22.084;2023-08-21T12:11:06;99567.00;;;18.86;40.07
63708;BME280;67643;-34.198;22.084;2023-08-21T12:13:34;99571.62;;;18.85;40.03
63708;BME280;67643;-34.198;22.084;2023-08-21T12:16:08;99571.89;;;19.13;39.94
63708;BME280;67643;-34.198;22.084;2023-08-21T12:18:36;99570.04;;;18.84;39.79
63708;BME280;67643;-34.198;22.084;2023-08-21T12:21:05;99566.01;;;18.70;39.88
63708;BME280;67643;-34.198;22.084;2023-08-21T12:23:33;99565.53;;;19.22;39.82
63708;BME280;67643;-34.198;22.084;2023-08-21T12:26:06;99565.55;;;18.86;39.78
63708;BME280;67643;-34.198;22.084;2023-08-21T12:28:34;99555.59;;;18.94;39.59
63708;BME280;67643;-34.198;22.084;2023-08-21T12:31:02;99558.36;;;19.16;39.55
63708;BME280;67643;-34.198;22.084;2023-08-21T12:33:32;99557.56;;;18.79;39.91
63708;BME280;67643;-34.198;22.084;2023-08-21T12:36:00;99560.11;;;19.34;39.86
63708;BME280;67643;-34.198;22.084;2023-08-21T12:38:29;99557.75;;;19.37;39.88
63708;BME280;67643;-34.198;22.084;2023-08-21T12:40:58;99568.60;;;19.04;40.08
63708;BME280;67643;-34.198;22.084;2023-08-21T12:43:27;99572.53;;;18.89;39.99
63708;BME280;67643;-34.198;22.084;2023-08-21T12:45:56;99572.86;;;19.38;39.98
63708;BME280;67643;-34.198;22.084;2023-08-21T12:48:24;99573.81;;;19.50;39.78
63708;BME280;67643;-34.198;22.084;2023-08-21T12:50:52;99565.08;;;19.50;39.78
63708;BME280;67643;-34.198;22.084;2023-08-21T12:53:21;99565.12;;;19.38;39.85